Time;durP1;ratioP1;P1;durP2;ratioP2;P2;SDS_P1;SDS_P2;PMS_P1;PMS_P2;Temp;Humidity;BMP_temperature;BMP_pressure;BME280_temperature;BME280_humidity;BME280_pressure;Samples;Min_cycle;Max_cycle;Signal;HPM_P1;HPM_P2
2021/08/12 00:02:34;;;;;;;5.80;3.40;;;24.80;70.40;;;;;;5050106;28;20048;-68
2021/08/12 00:05:38;;;;;;;5.47;3.40;;;24.80;70.20;;;;;;5050207;28;20048;-67
2021/08/12 00:08:43;;;;;;;5.43;4.10;;;24.90;70.60;;;;;;5050143;28;20491;-67
2021/08/12 00:11:47;;;;;;;8.23;4.20;;;24.90;75.90;;;;;;5050377;28;20048;-67
2021/08/12 00:14:51;;;;;;;14.77;4.38;;;24.90;77.30;;;;;;5050063;28;20051;-67
2021/08/12 00:17:55;;;;;;;12.93;4.18;;;24.90;78.90;;;;;;5049055;28;20115;-67
2021/08/12 00:20:59;;;;;;;8.15;4.38;;;24.80;80.30;;;;;;5049669;28;20040;-68
2021/08/12 00:24:03;;;;;;;6.80;4.50;;;24.60;79.80;;;;;;5050035;28;20048;-67
2021/08/12 00:27:09;;;;;;;7.57;4.00;;;24.60;79.30;;;;;;5050424;28;20048;-67
2021/08/12 00:30:13;;;;;;;7.38;3.90;;;24.50;79.70;;;;;;5049829;28;20056;-67
2021/08/12 00:33:18;;;;;;;8.00;3.90;;;24.40;79.50;;;;;;5049846;28;20048;-68
2021/08/12 00:36:21;;;;;;;6.88;4.20;;;24.40;79.10;;;;;;5049851;28;20040;-68
2021/08/12 00:39:26;;;;;;;7.57;3.97;;;24.30;77.80;;;;;;5060016;28;20044;-68
2021/08/12 00:42:30;;;;;;;6.30;3.88;;;24.30;78.60;;;;;;5049813;28;20120;-67
2021/08/12 00:45:35;;;;;;;10.52;4.30;;;24.30;76.70;;;;;;5049642;28;20044;-67
2021/08/12 00:48:40;;;;;;;7.93;4.10;;;24.30;77.70;;;;;;5049726;28;20487;-68
2021/08/12 00:51:47;;;;;;;9.90;3.97;;;24.30;76.30;;;;;;5048888;28;20048;-67
2021/08/12 00:54:52;;;;;;;5.55;3.53;;;24.30;76.20;;;;;;5048855;28;20053;-68
2021/08/12 00:57:56;;;;;;;7.25;3.92;;;24.30;76.10;;;;;;5059942;28;20044;-67
2021/08/12 01:01:01;;;;;;;5.88;4.20;;;24.30;78.50;;;;;;5048874;28;20498;-67
2021/08/12 01:04:06;;;;;;;10.13;4.38;;;24.30;77.70;;;;;;5037463;28;20040;-67
2021/08/12 01:07:27;;;;;;;10.38;5.38;;;24.30;83.30;;;;;;5060466;28;20434;-68
2021/08/12 01:10:54;;;;;;;11.13;5.10;;;24.20;84.30;;;;;;5048708;28;20044;-67
2021/08/12 01:14:16;;;;;;;8.68;4.55;;;24.10;85.20;;;;;;5048744;28;20522;-68
2021/08/12 01:17:26;;;;;;;7.35;5.32;;;24.00;83.40;;;;;;5064439;28;20056;-68
2021/08/12 01:20:53;;;;;;;6.55;4.43;;;23.90;83.30;;;;;;5063946;28;20046;-67
2021/08/12 01:24:02;;;;;;;10.80;4.38;;;23.80;86.20;;;;;;5064068;28;20403;-67
2021/08/12 01:27:11;;;;;;;11.27;4.63;;;23.70;85.90;;;;;;5052658;28;20534;-68
2021/08/12 01:30:30;;;;;;;7.22;4.80;;;23.60;85.60;;;;;;5053365;28;20058;-68
2021/08/12 01:34:11;;;;;;;9.00;4.13;;;23.60;83.70;;;;;;5047880;28;20045;-67
2021/08/12 01:37:17;;;;;;;8.80;4.50;;;23.60;80.30;;;;;;5038274;28;20400;-68
2021/08/12 01:40:25;;;;;;;7.93;3.80;;;23.60;78.10;;;;;;5049400;28;20032;-67
2021/08/12 01:43:30;;;;;;;8.95;3.80;;;23.50;79.10;;;;;;5063704;28;20051;-67
2021/08/12 01:46:47;;;;;;;7.53;3.97;;;23.50;78.00;;;;;;5052229;28;20056;-67
2021/08/12 01:49:54;;;;;;;4.60;3.40;;;23.40;77.00;;;;;;5051545;28;20048;-68
2021/08/12 01:53:01;;;;;;;6.95;4.47;;;23.40;76.80;;;;;;5051696;28;20728;-68
2021/08/12 01:56:08;;;;;;;8.82;3.75;;;23.40;77.30;;;;;;5051894;28;20273;-67
2021/08/12 01:59:16;;;;;;;7.97;3.47;;;23.40;77.10;;;;;;5062795;28;20466;-67
2021/08/12 02:02:21;;;;;;;5.05;3.67;;;23.40;76.90;;;;;;5063636;28;20040;-67
2021/08/12 02:05:27;;;;;;;5.03;3.83;;;23.60;76.60;;;;;;5047739;28;20477;-67
2021/08/12 02:08:31;;;;;;;8.43;3.40;;;23.60;74.50;;;;;;5037517;28;20048;-67
2021/08/12 02:11:36;;;;;;;8.05;3.53;;;23.60;74.70;;;;;;5032901;28;20060;-68
2021/08/12 02:14:41;;;;;;;6.65;3.58;;;23.70;75.20;;;;;;5043847;28;20049;-67
2021/08/12 02:17:45;;;;;;;7.28;3.60;;;23.60;75.40;;;;;;5051293;28;20048;-67
2021/08/12 02:21:05;;;;;;;13.30;5.45;;;23.60;75.00;;;;;;5052152;28;20048;-68
2021/08/12 02:24:34;;;;;;;8.73;4.20;;;23.50;73.50;;;;;;5062680;28;20051;-67
2021/08/12 02:27:43;;;;;;;9.88;4.60;;;23.30;74.90;;;;;;5051613;28;20395;-68
2021/08/12 02:30:50;;;;;;;6.70;4.07;;;23.30;77.70;;;;;;5062903;28;20499;-67
2021/08/12 02:33:56;;;;;;;11.60;5.13;;;23.20;79.10;;;;;;5051315;28;20040;-67
2021/08/12 02:37:08;;;;;;;11.85;5.18;;;22.90;83.80;;;;;;5051192;28;20036;-67
2021/08/12 02:40:13;;;;;;;10.15;5.20;;;22.80;87.60;;;;;;5062940;28;20040;-67
2021/08/12 02:43:19;;;;;;;9.40;4.53;;;22.50;89.00;;;;;;5051521;28;20392;-68
2021/08/12 02:46:25;;;;;;;10.10;5.43;;;22.30;89.50;;;;;;5051222;28;20495;-67
2021/08/12 02:49:34;;;;;;;8.98;4.82;;;22.30;90.50;;;;;;5050622;28;20051;-68
2021/08/12 02:52:40;;;;;;;13.18;5.72;;;22.30;89.40;;;;;;5051126;28;20495;-68
2021/08/12 02:55:46;;;;;;;8.73;5.38;;;22.20;89.50;;;;;;5050992;28;20510;-68
2021/08/12 02:58:50;;;;;;;15.00;5.45;;;22.10;90.10;;;;;;5050814;28;20048;-68
2021/08/12 03:01:56;;;;;;;8.73;5.05;;;22.10;90.40;;;;;;5062497;28;20499;-68
2021/08/12 03:05:01;;;;;;;11.65;5.47;;;22.10;90.60;;;;;;5051371;28;20048;-68
2021/08/12 03:08:12;;;;;;;14.95;5.28;;;22.10;90.70;;;;;;5050884;28;20044;-67
2021/08/12 03:11:17;;;;;;;8.93;4.57;;;22.10;90.80;;;;;;5050621;28;20044;-67
2021/08/12 03:14:22;;;;;;;9.38;5.05;;;22.00;90.70;;;;;;5050191;28;20095;-67
2021/08/12 03:17:27;;;;;;;9.20;4.50;;;22.10;90.70;;;;;;5050476;28;20040;-67
2021/08/12 03:20:31;;;;;;;7.55;4.60;;;22.10;90.50;;;;;;5050925;28;20052;-67
2021/08/12 03:23:37;;;;;;;6.00;4.28;;;22.30;90.90;;;;;;5061915;28;20071;-67
2021/08/12 03:26:42;;;;;;;7.60;5.05;;;22.40;91.00;;;;;;5061171;28;20518;-67
2021/08/12 03:29:47;;;;;;;7.68;4.20;;;22.50;91.00;;;;;;5061459;28;20044;-67
2021/08/12 03:32:51;;;;;;;8.23;4.40;;;22.60;90.50;;;;;;5050135;28;20207;-67
2021/08/12 03:35:57;;;;;;;7.97;4.20;;;22.60;91.10;;;;;;5050335;28;20461;-67
2021/08/12 03:39:02;;;;;;;6.85;4.65;;;22.60;91.20;;;;;;5049288;28;20384;-67
2021/08/12 03:42:07;;;;;;;11.82;5.32;;;22.50;90.90;;;;;;5049806;28;20052;-67
2021/08/12 03:45:12;;;;;;;8.63;4.90;;;22.50;90.90;;;;;;5050467;28;20419;-68
2021/08/12 03:48:16;;;;;;;9.80;4.82;;;22.30;91.20;;;;;;5050207;28;20048;-67
2021/08/12 03:51:20;;;;;;;8.10;4.75;;;22.30;91.40;;;;;;5049624;28;20048;-67
2021/08/12 03:54:24;;;;;;;10.98;4.97;;;22.20;91.50;;;;;;5050490;28;20056;-67
2021/08/12 03:57:29;;;;;;;7.95;4.57;;;22.20;91.70;;;;;;5049369;28;20040;-67
2021/08/12 04:00:34;;;;;;;16.88;5.05;;;22.10;92.00;;;;;;5061236;28;20052;-67
2021/08/12 04:03:38;;;;;;;9.23;4.70;;;22.00;92.40;;;;;;5061159;28;20279;-67
2021/08/12 04:06:43;;;;;;;11.93;5.00;;;21.80;92.50;;;;;;5049285;28;20112;-67
2021/08/12 04:09:47;;;;;;;11.25;5.10;;;21.60;93.10;;;;;;5060700;28;20060;-68
2021/08/12 04:12:52;;;;;;;11.10;4.80;;;21.50;93.70;;;;;;5061139;28;20044;-67
2021/08/12 04:15:57;;;;;;;13.15;4.88;;;21.40;93.30;;;;;;5049240;28;20044;-68
2021/08/12 04:19:01;;;;;;;9.50;5.07;;;21.40;93.60;;;;;;5049678;28;20040;-68
2021/08/12 04:22:05;;;;;;;30.02;10.45;;;21.30;93.80;;;;;;5049032;28;20052;-68
2021/08/12 04:25:11;;;;;;;20.40;8.80;;;21.30;93.70;;;;;;5049898;28;20512;-68
2021/08/12 04:28:16;;;;;;;15.68;5.72;;;21.30;93.80;;;;;;5048691;28;20063;-67
2021/08/12 04:31:21;;;;;;;12.02;6.60;;;21.40;93.30;;;;;;5059830;28;20095;-68
2021/08/12 04:34:25;;;;;;;8.07;4.60;;;21.50;92.40;;;;;;5049020;28;20138;-67
2021/08/12 04:37:37;;;;;;;7.85;4.18;;;21.60;91.20;;;;;;5049417;28;20043;-67
2021/08/12 04:40:41;;;;;;;9.63;4.80;;;21.80;92.00;;;;;;5049635;28;20391;-67
2021/08/12 04:43:46;;;;;;;10.15;5.28;;;21.80;91.60;;;;;;5048950;28;20048;-67
2021/08/12 04:46:50;;;;;;;8.35;5.25;;;21.70;93.70;;;;;;5060254;28;20354;-67
2021/08/12 04:49:56;;;;;;;13.02;4.85;;;21.60;94.70;;;;;;5061201;28;20138;-68
2021/08/12 04:53:01;;;;;;;9.82;5.18;;;21.50;94.70;;;;;;5052807;28;20052;-67
2021/08/12 04:56:06;;;;;;;7.60;4.90;;;21.50;94.80;;;;;;5064519;28;20051;-68
2021/08/12 04:59:10;;;;;;;11.52;4.93;;;21.50;95.30;;;;;;5052065;28;20052;-67
2021/08/12 05:02:14;;;;;;;10.88;5.22;;;21.50;95.40;;;;;;5052646;28;20515;-67
2021/08/12 05:05:19;;;;;;;10.88;5.07;;;21.60;95.60;;;;;;5064309;28;20048;-67
2021/08/12 05:08:24;;;;;;;8.05;4.78;;;21.70;95.60;;;;;;5051963;28;20048;-68
2021/08/12 05:11:29;;;;;;;20.92;5.30;;;21.80;95.30;;;;;;5052484;28;20045;-68
2021/08/12 05:14:33;;;;;;;24.40;5.82;;;22.40;95.00;;;;;;5053311;28;20052;-68
2021/08/12 05:17:37;;;;;;;17.45;5.45;;;24.70;92.70;;;;;;5053433;28;20182;-68
2021/08/12 05:20:41;;;;;;;14.52;4.93;;;27.30;89.00;;;;;;5063723;28;20056;-68
2021/08/12 05:23:45;;;;;;;17.27;4.78;;;29.20;83.10;;;;;;5063789;28;20040;-68
2021/08/12 05:26:50;;;;;;;28.30;5.80;;;30.80;78.50;;;;;;5053198;28;20040;-67
2021/08/12 05:29:54;;;;;;;12.68;4.35;;;32.00;76.00;;;;;;5052461;28;20048;-67
2021/08/12 05:32:59;;;;;;;13.30;4.35;;;32.40;74.70;;;;;;5063630;28;20403;-67
2021/08/12 05:36:05;;;;;;;8.77;5.03;;;31.80;75.20;;;;;;5063804;28;20044;-67
2021/08/12 05:39:09;;;;;;;12.35;5.35;;;32.20;75.90;;;;;;5062879;28;20048;-67
2021/08/12 05:42:14;;;;;;;8.90;4.50;;;32.60;75.20;;;;;;5063622;28;20044;-67
2021/08/12 05:45:18;;;;;;;7.68;4.10;;;33.00;74.30;;;;;;5053130;28;20072;-67
2021/08/12 05:48:22;;;;;;;9.90;4.40;;;33.30;74.00;;;;;;5052479;28;20044;-68
2021/08/12 05:51:26;;;;;;;7.00;4.40;;;33.70;73.20;;;;;;5052485;28;20051;-68
2021/08/12 05:54:31;;;;;;;16.08;4.20;;;34.20;72.60;;;;;;5051919;28;20044;-68
2021/08/12 05:57:35;;;;;;;9.10;3.92;;;34.40;71.90;;;;;;5051988;28;20048;-68
2021/08/12 06:00:39;;;;;;;10.38;4.20;;;34.40;71.00;;;;;;5051780;28;20040;-68
2021/08/12 06:03:45;;;;;;;43.63;5.45;;;34.60;70.60;;;;;;5063252;28;20048;-68
2021/08/12 06:06:49;;;;;;;9.23;4.65;;;34.70;70.70;;;;;;5051810;28;20040;-68
2021/08/12 06:09:53;;;;;;;10.13;4.10;;;34.70;69.80;;;;;;5050857;28;20051;-68
2021/08/12 06:12:57;;;;;;;7.95;3.60;;;34.50;69.50;;;;;;5052452;28;20056;-68
2021/08/12 06:16:01;;;;;;;8.55;4.22;;;34.30;69.90;;;;;;5052149;28;20048;-68
2021/08/12 06:19:07;;;;;;;9.30;3.80;;;34.80;69.60;;;;;;5062204;28;20044;-68
2021/08/12 06:22:13;;;;;;;15.80;4.18;;;34.80;69.00;;;;;;5062522;28;20060;-68
2021/08/12 06:25:17;;;;;;;8.52;3.60;;;35.00;67.70;;;;;;5042896;28;20056;-68
2021/08/12 06:28:22;;;;;;;8.27;3.55;;;35.40;66.70;;;;;;5053936;28;20044;-68
2021/08/12 06:31:28;;;;;;;7.55;3.25;;;35.80;66.00;;;;;;5031147;28;20056;-68
2021/08/12 06:34:33;;;;;;;7.10;3.70;;;36.20;65.90;;;;;;5030945;28;20052;-68
2021/08/12 06:37:51;;;;;;;7.40;3.28;;;36.50;65.30;;;;;;5031073;28;20503;-68
2021/08/12 06:40:56;;;;;;;7.65;3.47;;;36.50;64.70;;;;;;5031536;28;20044;-68
2021/08/12 06:44:04;;;;;;;11.60;3.30;;;36.60;65.00;;;;;;5031598;28;20052;-68
2021/08/12 06:47:08;;;;;;;6.95;3.05;;;36.90;64.10;;;;;;5031942;28;20044;-68
2021/08/12 06:50:14;;;;;;;6.05;3.47;;;37.50;63.30;;;;;;5053672;28;20052;-68
2021/08/12 06:53:19;;;;;;;9.07;2.92;;;38.10;62.50;;;;;;5031036;28;20072;-68
2021/08/12 06:56:23;;;;;;;8.68;3.35;;;38.00;62.30;;;;;;5031851;28;20515;-68
2021/08/12 06:59:28;;;;;;;9.75;3.65;;;36.30;63.30;;;;;;5041938;28;20064;-68
2021/08/12 07:02:32;;;;;;;11.07;3.55;;;34.30;66.10;;;;;;5031583;28;20052;-67
2021/08/12 07:05:36;;;;;;;7.78;3.30;;;32.70;69.20;;;;;;5053644;28;20186;-68
2021/08/12 07:08:41;;;;;;;11.27;3.75;;;32.70;71.10;;;;;;5031186;28;20044;-67
2021/08/12 07:11:47;;;;;;;8.18;3.95;;;31.30;73.00;;;;;;5029909;28;20056;-68
2021/08/12 07:14:51;;;;;;;8.13;3.58;;;31.90;72.50;;;;;;5030729;28;20068;-67
2021/08/12 07:17:55;;;;;;;6.32;3.83;;;31.00;72.80;;;;;;5031200;28;20511;-68
2021/08/12 07:21:01;;;;;;;7.32;3.80;;;31.10;74.00;;;;;;5041615;28;20403;-68
2021/08/12 07:24:05;;;;;;;7.28;3.08;;;32.10;73.20;;;;;;5061927;28;20052;-68
2021/08/12 07:27:09;;;;;;;9.55;3.72;;;33.40;70.70;;;;;;5050144;28;20116;-68
2021/08/12 07:30:13;;;;;;;8.50;3.45;;;33.90;69.30;;;;;;5050996;28;20056;-68
2021/08/12 07:33:17;;;;;;;9.77;3.58;;;33.10;69.50;;;;;;5061722;28;20055;-68
2021/08/12 07:36:21;;;;;;;5.15;2.88;;;35.00;67.80;;;;;;5050287;28;20052;-68
2021/08/12 07:39:27;;;;;;;5.32;2.92;;;36.20;65.30;;;;;;5061102;28;20044;-69
2021/08/12 07:42:32;;;;;;;4.45;2.72;;;38.20;62.60;;;;;;5049729;28;20043;-68
2021/08/12 07:45:36;;;;;;;8.48;3.03;;;39.50;60.80;;;;;;5061096;28;20056;-68
2021/08/12 07:48:40;;;;;;;7.90;2.92;;;40.00;60.20;;;;;;5050016;28;20490;-69
2021/08/12 07:51:45;;;;;;;5.78;2.72;;;41.00;58.60;;;;;;5049818;28;20335;-69
2021/08/12 07:54:50;;;;;;;5.75;3.15;;;39.80;58.00;;;;;;5050450;28;20396;-68
2021/08/12 07:57:55;;;;;;;5.97;3.67;;;39.00;57.40;;;;;;5049958;28;20047;-68
2021/08/12 08:01:01;;;;;;;4.78;2.60;;;39.80;57.60;;;;;;5050309;28;20044;-67
2021/08/12 08:04:05;;;;;;;6.50;2.75;;;39.50;56.80;;;;;;5050549;28;20048;-68
2021/08/12 08:07:11;;;;;;;6.18;2.92;;;38.00;58.20;;;;;;5050159;28;20347;-68
2021/08/12 08:10:18;;;;;;;6.65;3.22;;;37.10;58.70;;;;;;5060676;28;20048;-68
2021/08/12 08:13:22;;;;;;;5.00;2.97;;;36.80;59.60;;;;;;5049679;28;20395;-66
2021/08/12 08:16:28;;;;;;;6.22;3.15;;;38.30;59.90;;;;;;5050502;28;20040;-68
2021/08/12 08:19:32;;;;;;;7.80;3.33;;;38.00;58.00;;;;;;5049987;28;20051;-68
2021/08/12 08:22:36;;;;;;;4.03;2.63;;;38.10;56.80;;;;;;5049136;28;20040;-68
2021/08/12 08:25:41;;;;;;;5.75;2.70;;;40.80;55.50;;;;;;5030129;28;20064;-68
2021/08/12 08:28:45;;;;;;;3.92;2.70;;;42.00;54.50;;;;;;5029760;28;20044;-68
2021/08/12 08:31:49;;;;;;;6.03;2.60;;;41.20;53.90;;;;;;5030078;28;20049;-68
2021/08/12 08:34:54;;;;;;;3.72;2.40;;;40.20;54.40;;;;;;5029965;28;20048;-68
2021/08/12 08:37:59;;;;;;;6.95;2.78;;;41.20;55.10;;;;;;5029387;28;20052;-68
2021/08/12 08:41:04;;;;;;;6.85;2.45;;;41.00;54.80;;;;;;5029932;28;20352;-68
2021/08/12 08:44:09;;;;;;;4.30;2.75;;;41.40;55.00;;;;;;5030446;28;20057;-68
2021/08/12 08:47:14;;;;;;;5.05;2.47;;;43.10;54.10;;;;;;5030046;28;20421;-68
2021/08/12 08:50:20;;;;;;;5.18;2.40;;;41.70;53.40;;;;;;5029951;28;20048;-67
2021/08/12 08:53:24;;;;;;;3.55;2.17;;;40.10;55.10;;;;;;5030060;28;20040;-68
2021/08/12 08:56:29;;;;;;;3.10;2.40;;;42.30;54.60;;;;;;5029792;28;20056;-68
2021/08/12 08:59:36;;;;;;;5.60;2.60;;;44.10;52.40;;;;;;5029467;28;20507;-68
2021/08/12 09:02:40;;;;;;;5.13;2.65;;;41.30;53.60;;;;;;5029383;28;20040;-67
2021/08/12 09:05:45;;;;;;;8.77;2.85;;;42.40;52.90;;;;;;5029796;28;20045;-68
2021/08/12 09:08:49;;;;;;;6.40;2.53;;;43.20;53.10;;;;;;5029175;28;20049;-66
2021/08/12 09:12:00;;;;;;;6.40;2.35;;;41.70;53.30;;;;;;5029246;28;20048;-69
2021/08/12 09:15:12;;;;;;;5.93;2.58;;;44.90;52.10;;;;;;5029735;28;20056;-68
2021/08/12 09:18:27;;;;;;;4.20;2.20;;;44.80;51.30;;;;;;5029035;28;20041;-68
2021/08/12 09:21:31;;;;;;;4.05;2.10;;;44.50;52.00;;;;;;5040005;28;20056;-68
2021/08/12 09:24:49;;;;;;;7.63;2.30;;;45.50;50.90;;;;;;5044629;28;20485;-68
2021/08/12 09:28:11;;;;;;;4.73;2.30;;;44.20;49.30;;;;;;5048875;28;20044;-68
2021/08/12 09:31:15;;;;;;;6.47;2.58;;;44.60;48.60;;;;;;5049113;28;20040;-69
2021/08/12 09:34:22;;;;;;;3.72;2.22;;;45.70;48.70;;;;;;5059744;28;20494;-68
2021/08/12 09:37:31;;;;;;;4.07;2.28;;;48.00;48.50;;;;;;5052978;28;20044;-69
2021/08/12 09:40:36;;;;;;;4.25;2.60;;;47.20;47.40;;;;;;5053105;28;20502;-68
2021/08/12 09:43:42;;;;;;;3.28;2.55;;;44.50;48.80;;;;;;5052781;28;20040;-67
2021/08/12 09:46:54;;;;;;;7.15;2.60;;;42.50;49.20;;;;;;5053034;28;20056;-68
2021/08/12 09:50:00;;;;;;;4.93;2.50;;;46.10;48.40;;;;;;5052498;28;20055;-67
2021/08/12 09:53:05;;;;;;;3.70;2.75;;;46.80;45.80;;;;;;5052897;28;20052;-68
2021/08/12 09:56:11;;;;;;;5.00;1.90;;;43.60;48.20;;;;;;5053073;28;20052;-68
2021/08/12 09:59:15;;;;;;;3.30;2.47;;;46.10;47.30;;;;;;5052363;28;20502;-68
2021/08/12 10:02:19;;;;;;;3.78;2.60;;;47.90;46.40;;;;;;5052896;28;20040;-68
2021/08/12 10:05:24;;;;;;;4.43;2.30;;;46.90;46.70;;;;;;5052656;28;20048;-68
2021/08/12 10:08:32;;;;;;;7.07;2.10;;;48.90;46.60;;;;;;5052172;28;20051;-68
2021/08/12 10:11:38;;;;;;;3.42;2.10;;;46.90;46.90;;;;;;5052188;28;20491;-68
2021/08/12 10:14:42;;;;;;;3.55;2.28;;;48.20;46.10;;;;;;5052345;28;20052;-68
2021/08/12 10:17:48;;;;;;;8.43;2.58;;;49.20;45.50;;;;;;5051346;28;20048;-67
2021/08/12 10:20:52;;;;;;;6.00;2.00;;;47.40;45.00;;;;;;5052406;28;20048;-68
2021/08/12 10:24:01;;;;;;;4.95;2.30;;;50.00;44.80;;;;;;5051782;28;20043;-68
2021/08/12 10:27:05;;;;;;;6.57;2.20;;;52.20;44.30;;;;;;5052325;28;20052;-68
2021/08/12 10:30:10;;;;;;;8.00;2.33;;;53.50;42.90;;;;;;5051928;28;20048;-68
2021/08/12 10:33:17;;;;;;;6.70;2.38;;;53.40;43.00;;;;;;5052011;28;20043;-68
2021/08/12 10:36:22;;;;;;;4.32;2.20;;;51.10;43.30;;;;;;5051020;28;20416;-67
2021/08/12 10:39:27;;;;;;;3.15;1.90;;;50.10;43.20;;;;;;5051412;28;20047;-68
2021/08/12 10:42:32;;;;;;;3.60;2.00;;;51.50;42.80;;;;;;5051897;28;20359;-69
2021/08/12 10:45:37;;;;;;;4.78;2.38;;;52.10;42.40;;;;;;5050487;28;20056;-68
2021/08/12 10:48:41;;;;;;;5.00;2.40;;;51.10;42.40;;;;;;5050253;28;20395;-68
2021/08/12 10:51:50;;;;;;;5.18;2.08;;;51.70;41.40;;;;;;5051444;28;20056;-68
2021/08/12 10:55:18;;;;;;;5.75;2.28;;;49.00;41.00;;;;;;5051816;28;20502;-68
2021/08/12 10:58:25;;;;;;;3.80;1.73;;;49.40;41.80;;;;;;5051246;28;20474;-68
2021/08/12 11:01:36;;;;;;;3.58;2.00;;;51.20;40.80;;;;;;5051589;28;20048;-68
2021/08/12 11:05:00;;;;;;;5.05;2.25;;;52.30;40.40;;;;;;5051334;28;20065;-69
2021/08/12 11:08:05;;;;;;;3.75;1.90;;;53.60;39.40;;;;;;5051057;28;20048;-66
2021/08/12 11:11:09;;;;;;;4.75;2.13;;;52.90;39.50;;;;;;5051345;28;20044;-69
2021/08/12 11:14:13;;;;;;;3.67;1.98;;;49.40;38.70;;;;;;5050823;28;20609;-68
2021/08/12 11:17:19;;;;;;;5.45;2.28;;;47.40;39.90;;;;;;5051455;28;20040;-67
2021/08/12 11:20:37;;;;;;;5.57;2.28;;;46.80;40.00;;;;;;5051177;28;20048;-68
2021/08/12 11:23:47;;;;;;;4.85;2.25;;;44.70;42.00;;;;;;5050681;28;20048;-68
2021/08/12 11:26:51;;;;;;;5.40;2.00;;;48.10;40.90;;;;;;5050865;28;20597;-68
2021/08/12 11:29:55;;;;;;;5.97;2.20;;;46.70;41.10;;;;;;5050566;28;20047;-69
2021/08/12 11:33:29;;;;;;;2.75;2.03;;;44.20;41.90;;;;;;5049913;28;20048;-68
2021/08/12 11:36:37;;;;;;;4.90;1.85;;;45.00;42.30;;;;;;5050746;28;20056;-68
2021/08/12 11:40:00;;;;;;;1.77;1.60;;;48.20;39.30;;;;;;5050519;28;20048;-68
2021/08/12 11:43:06;;;;;;;2.85;2.10;;;50.20;39.60;;;;;;5051019;28;20044;-68
2021/08/12 11:46:12;;;;;;;6.35;1.70;;;48.60;39.20;;;;;;5051016;28;20048;-68
2021/08/12 11:49:18;;;;;;;3.38;1.75;;;47.80;38.20;;;;;;5050940;28;20191;-68
2021/08/12 11:52:35;;;;;;;4.22;1.67;;;49.30;38.70;;;;;;5050797;28;20055;-66
2021/08/12 11:55:41;;;;;;;2.92;1.88;;;48.00;38.20;;;;;;5050788;28;20331;-68
2021/08/12 11:58:50;;;;;;;2.88;1.77;;;46.90;39.80;;;;;;5049825;28;20036;-68
2021/08/12 12:01:56;;;;;;;3.80;2.10;;;49.10;39.00;;;;;;5050411;28;20060;-69
2021/08/12 12:05:01;;;;;;;3.97;1.80;;;50.60;39.10;;;;;;5049363;28;20040;-69
2021/08/12 12:08:12;;;;;;;4.78;1.80;;;51.80;39.40;;;;;;5050217;28;20530;-69
2021/08/12 12:11:17;;;;;;;2.97;1.70;;;52.30;38.30;;;;;;5049325;28;20048;-68
2021/08/12 12:14:26;;;;;;;2.25;1.88;;;53.30;37.50;;;;;;5050268;28;20040;-67
2021/08/12 12:17:33;;;;;;;2.47;1.70;;;53.90;37.50;;;;;;5050156;28;20052;-69
2021/08/12 12:20:47;;;;;;;2.67;1.60;;;53.70;37.30;;;;;;5048981;28;20047;-68
2021/08/12 12:23:51;;;;;;;2.03;1.50;;;52.50;37.80;;;;;;5049959;28;20126;-69
2021/08/12 12:26:57;;;;;;;4.75;1.60;;;53.00;37.50;;;;;;5049782;28;20503;-69
2021/08/12 12:30:12;;;;;;;2.50;1.50;;;52.70;36.60;;;;;;5049553;28;20053;-68
2021/08/12 12:33:18;;;;;;;4.30;1.60;;;52.00;35.90;;;;;;5049651;28;20068;-70
2021/08/12 12:36:24;;;;;;;3.75;1.60;;;51.60;35.90;;;;;;5049704;28;20055;-68
2021/08/12 12:39:31;;;;;;;2.33;1.70;;;51.30;36.30;;;;;;5049550;28;20060;-67
2021/08/12 12:42:36;;;;;;;2.88;1.60;;;51.30;37.10;;;;;;5049617;28;20047;-68
2021/08/12 12:45:44;;;;;;;4.72;2.13;;;51.20;37.30;;;;;;5049484;28;20051;-67
2021/08/12 12:48:49;;;;;;;3.08;1.50;;;51.50;37.30;;;;;;5059809;28;20501;-67
2021/08/12 12:52:05;;;;;;;2.97;1.77;;;50.90;37.80;;;;;;5049398;28;20399;-68
2021/08/12 12:55:19;;;;;;;4.82;1.85;;;50.90;37.80;;;;;;5049439;28;20044;-68
2021/08/12 12:58:25;;;;;;;4.13;2.33;;;51.30;37.10;;;;;;5049014;28;20605;-67
2021/08/12 13:01:29;;;;;;;4.50;1.83;;;50.80;37.90;;;;;;5049732;28;20040;-66
2021/08/12 13:04:33;;;;;;;2.80;2.00;;;49.90;39.40;;;;;;5049417;28;20040;-67
2021/08/12 13:07:37;;;;;;;4.32;2.13;;;50.10;39.20;;;;;;5049399;28;20044;-67
2021/08/12 13:10:41;;;;;;;4.85;2.30;;;50.00;38.80;;;;;;5050482;28;20044;-67
2021/08/12 13:13:48;;;;;;;3.38;2.15;;;50.10;39.00;;;;;;5053474;28;20048;-67
2021/08/12 13:16:53;;;;;;;3.10;2.13;;;48.70;39.30;;;;;;5053380;28;20063;-67
2021/08/12 13:20:14;;;;;;;5.32;2.15;;;48.20;39.80;;;;;;5053065;28;20051;-66
2021/08/12 13:23:19;;;;;;;3.67;2.40;;;47.80;40.30;;;;;;5052945;28;20036;-66
2021/08/12 13:26:32;;;;;;;4.88;2.60;;;47.10;40.70;;;;;;5053273;28;20068;-67
2021/08/12 13:29:41;;;;;;;6.10;2.90;;;46.90;40.60;;;;;;5053062;28;20060;-67
2021/08/12 13:32:46;;;;;;;;;;;46.70;41.10;;;;;;5053897;28;20396;-67
2021/08/12 13:35:54;;;;;;;3.88;2.50;;;46.80;41.50;;;;;;5052899;28;19912;-67
2021/08/12 13:38:59;;;;;;;5.30;2.80;;;46.80;41.50;;;;;;5052708;28;20447;-67
2021/08/12 13:42:03;;;;;;;2.90;2.50;;;46.70;40.80;;;;;;5053209;28;20416;-66
2021/08/12 13:45:07;;;;;;;3.42;2.70;;;46.70;41.10;;;;;;5052872;28;20056;-67
2021/08/12 13:48:12;;;;;;;4.78;2.70;;;46.60;40.80;;;;;;5051713;28;20419;-66
2021/08/12 13:51:16;;;;;;;4.25;2.50;;;46.30;41.10;;;;;;5053097;28;20112;-66
2021/08/12 13:54:20;;;;;;;3.72;2.58;;;46.10;41.50;;;;;;5052922;28;20112;-66
2021/08/12 13:57:24;;;;;;;4.15;2.83;;;45.80;41.60;;;;;;5052017;28;20170;-66
2021/08/12 14:00:28;;;;;;;5.20;2.80;;;45.80;41.50;;;;;;5052884;28;20051;-66
2021/08/12 14:03:32;;;;;;;6.63;2.95;;;45.60;41.90;;;;;;5052893;28;20044;-66
2021/08/12 14:06:37;;;;;;;7.25;2.78;;;45.20;41.90;;;;;;5052597;28;20052;-65
2021/08/12 14:09:42;;;;;;;5.50;3.10;;;43.50;42.50;;;;;;5052227;28;20053;-67
2021/08/12 14:12:47;;;;;;;3.40;2.75;;;43.60;42.20;;;;;;5052557;28;20052;-67
2021/08/12 14:15:51;;;;;;;8.73;3.30;;;43.70;42.50;;;;;;5052384;28;20044;-66
2021/08/12 14:18:55;;;;;;;8.70;2.55;;;43.70;43.20;;;;;;5052274;28;20044;-66
2021/08/12 14:22:00;;;;;;;6.03;3.22;;;43.70;43.00;;;;;;5051716;28;20052;-66
2021/08/12 14:25:05;;;;;;;6.18;2.88;;;43.50;43.40;;;;;;5051821;28;20048;-66
2021/08/12 14:28:10;;;;;;;16.58;3.40;;;43.00;43.00;;;;;;5051956;28;20064;-66
2021/08/12 14:31:15;;;;;;;6.22;3.20;;;42.90;43.50;;;;;;5051905;28;20036;-66
2021/08/12 14:34:19;;;;;;;5.82;3.20;;;42.80;43.90;;;;;;5052051;28;20092;-67
2021/08/12 14:37:23;;;;;;;9.15;2.95;;;42.50;44.10;;;;;;5052000;28;20380;-67
2021/08/12 14:40:28;;;;;;;5.22;2.90;;;42.80;43.80;;;;;;5051921;28;20044;-67
2021/08/12 14:43:33;;;;;;;3.85;3.05;;;42.40;44.20;;;;;;5052027;28;20403;-67
2021/08/12 14:46:38;;;;;;;10.63;3.30;;;42.30;44.60;;;;;;5051779;28;20052;-65
2021/08/12 14:49:42;;;;;;;4.30;2.83;;;42.10;44.90;;;;;;5051554;28;20068;-66
2021/08/12 14:52:47;;;;;;;8.77;3.08;;;41.90;45.60;;;;;;5051807;28;20052;-68
2021/08/12 14:55:53;;;;;;;6.07;3.00;;;41.70;45.30;;;;;;5051337;28;20052;-67
2021/08/12 14:58:57;;;;;;;5.07;3.30;;;41.70;45.10;;;;;;5051296;28;20131;-69
2021/08/12 15:02:01;;;;;;;4.90;3.17;;;41.70;45.70;;;;;;5051679;28;20056;-68
2021/08/12 15:05:08;;;;;;;9.60;2.83;;;41.70;45.50;;;;;;5051473;28;20028;-69
2021/08/12 15:08:14;;;;;;;6.05;3.00;;;41.80;45.30;;;;;;5050482;28;20388;-68
2021/08/12 15:11:19;;;;;;;4.70;2.85;;;42.00;45.00;;;;;;5051099;28;20048;-68
2021/08/12 15:14:25;;;;;;;6.88;2.90;;;41.80;45.30;;;;;;5051138;28;20419;-68
2021/08/12 15:17:29;;;;;;;5.47;3.00;;;40.90;44.90;;;;;;5050951;28;20044;-68
2021/08/12 15:20:34;;;;;;;8.00;3.20;;;40.20;46.10;;;;;;5051311;28;20376;-68
2021/08/12 15:23:39;;;;;;;5.55;2.70;;;40.20;46.00;;;;;;5051171;28;20044;-68
2021/08/12 15:26:47;;;;;;;8.48;3.15;;;40.50;45.80;;;;;;5050888;28;20040;-69
2021/08/12 15:29:51;;;;;;;8.20;3.67;;;40.10;46.70;;;;;;5050424;28;20048;-68
2021/08/12 15:32:56;;;;;;;3.78;2.90;;;40.40;46.60;;;;;;5050613;28;20052;-68
2021/08/12 15:36:01;;;;;;;4.80;3.00;;;40.60;46.60;;;;;;5050713;28;20060;-68
2021/08/12 15:39:06;;;;;;;5.22;3.00;;;40.60;46.60;;;;;;5050442;28;20047;-68
2021/08/12 15:42:11;;;;;;;9.95;2.97;;;40.60;46.60;;;;;;5050830;28;20665;-68
2021/08/12 15:45:16;;;;;;;7.70;2.90;;;40.50;46.50;;;;;;5060916;28;20052;-67
2021/08/12 15:48:21;;;;;;;5.35;3.00;;;40.40;46.50;;;;;;5050307;28;20052;-67
2021/08/12 15:51:25;;;;;;;9.02;2.72;;;40.20;46.90;;;;;;5050373;28;20047;-67
2021/08/12 15:54:30;;;;;;;8.98;3.65;;;39.90;45.80;;;;;;5049750;28;20052;-68
2021/08/12 15:57:35;;;;;;;5.28;3.13;;;39.30;46.00;;;;;;5050149;28;20040;-68
2021/08/12 16:00:42;;;;;;;6.70;3.20;;;39.40;46.50;;;;;;5050235;28;20064;-67
2021/08/12 16:03:46;;;;;;;5.38;2.92;;;39.50;47.00;;;;;;5050141;28;20044;-68
2021/08/12 16:06:51;;;;;;;4.47;3.08;;;39.50;47.20;;;;;;5050028;28;20043;-67
2021/08/12 16:09:55;;;;;;;7.93;2.83;;;39.40;47.30;;;;;;5049738;28;20056;-68